sensor_id;sensor_type;location;lat;lon;timestamp;P1;durP1;ratioP1;P2;durP2;ratioP2
79369;SDS011;68835;53.096;17.932;2023-04-01T00:01:09;21.70;;;13.10;;
79369;SDS011;68835;53.096;17.932;2023-04-01T00:03:40;28.40;;;14.90;;
79369;SDS011;68835;53.096;17.932;2023-04-01T00:06:09;22.70;;;13.30;;
79369;SDS011;68835;53.096;17.932;2023-04-01T00:08:41;21.40;;;13.10;;
79369;SDS011;68835;53.096;17.932;2023-04-01T00:11:09;25.30;;;11.70;;
79369;SDS011;68835;53.096;17.932;2023-04-01T00:13:37;24.50;;;13.20;;
79369;SDS011;68835;53.096;17.932;2023-04-01T00:16:04;21.00;;;12.40;;
79369;SDS011;68835;53.096;17.932;2023-04-01T00:20:58;20.90;;;11.90;;
79369;SDS011;68835;53.096;17.932;2023-04-01T00:23:26;29.40;;;15.10;;
79369;SDS011;68835;53.096;17.932;2023-04-01T00:25:53;24.60;;;13.00;;
79369;SDS011;68835;53.096;17.932;2023-04-01T00:28:20;23.40;;;13.40;;
79369;SDS011;68835;53.096;17.932;2023-04-01T00:30:48;22.30;;;13.30;;
79369;SDS011;68835;53.096;17.932;2023-04-01T00:33:15;22.40;;;13.30;;
79369;SDS011;68835;53.096;17.932;2023-04-01T00:35:43;25.50;;;14.10;;
79369;SDS011;68835;53.096;17.932;2023-04-01T00:38:11;22.00;;;13.20;;
79369;SDS011;68835;53.096;17.932;2023-04-01T00:40:44;21.00;;;12.70;;
79369;SDS011;68835;53.096;17.932;2023-04-01T00:43:17;28.90;;;15.80;;
79369;SDS011;68835;53.096;17.932;2023-04-01T00:45:47;23.90;;;14.20;;
79369;SDS011;68835;53.096;17.932;2023-04-01T00:48:17;22.10;;;12.90;;
79369;SDS011;68835;53.096;17.932;2023-04-01T00:50:50;18.40;;;11.70;;
79369;SDS011;68835;53.096;17.932;2023-04-01T00:53:23;21.00;;;12.20;;
79369;SDS011;68835;53.096;17.932;2023-04-01T00:55:56;21.90;;;13.80;;
79369;SDS011;68835;53.096;17.932;2023-04-01T00:58:29;21.80;;;13.40;;
79369;SDS011;68835;53.096;17.932;2023-04-01T01:01:02;22.50;;;12.80;;
79369;SDS011;68835;53.096;17.932;2023-04-01T01:03:30;27.30;;;14.60;;
79369;SDS011;68835;53.096;17.932;2023-04-01T01:08:35;24.60;;;13.00;;
79369;SDS011;68835;53.096;17.932;2023-04-01T01:11:43;20.30;;;11.80;;
79369;SDS011;68835;53.096;17.932;2023-04-01T01:14:34;23.00;;;12.50;;
79369;SDS011;68835;53.096;17.932;2023-04-01T01:33:50;24.50;;;13.00;;
79369;SDS011;68835;53.096;17.932;2023-04-01T01:36:20;26.60;;;14.20;;
79369;SDS011;68835;53.096;17.932;2023-04-01T01:38:49;24.00;;;13.80;;
79369;SDS011;68835;53.096;17.932;2023-04-01T01:41:17;30.80;;;15.10;;
79369;SDS011;68835;53.096;17.932;2023-04-01T01:43:48;33.10;;;17.10;;
79369;SDS011;68835;53.096;17.932;2023-04-01T01:46:21;32.10;;;16.40;;
79369;SDS011;68835;53.096;17.932;2023-04-01T01:48:50;27.50;;;14.90;;
79369;SDS011;68835;53.096;17.932;2023-04-01T01:51:19;27.70;;;14.70;;
79369;SDS011;68835;53.096;17.932;2023-04-01T01:53:48;31.30;;;14.00;;
79369;SDS011;68835;53.096;17.932;2023-04-01T01:56:18;24.00;;;13.30;;
79369;SDS011;68835;53.096;17.932;2023-04-01T01:58:50;23.30;;;13.70;;
79369;SDS011;68835;53.096;17.932;2023-04-01T02:01:23;30.40;;;15.10;;
79369;SDS011;68835;53.096;17.932;2023-04-01T02:03:53;24.70;;;14.00;;
79369;SDS011;68835;53.096;17.932;2023-04-01T02:06:23;25.30;;;13.50;;
79369;SDS011;68835;53.096;17.932;2023-04-01T02:08:57;20.20;;;12.80;;
79369;SDS011;68835;53.096;17.932;2023-04-01T02:11:32;22.70;;;13.00;;
79369;SDS011;68835;53.096;17.932;2023-04-01T02:14:06;21.10;;;13.40;;
79369;SDS011;68835;53.096;17.932;2023-04-01T02:16:59;16.90;;;11.70;;
79369;SDS011;68835;53.096;17.932;2023-04-01T02:19:39;24.80;;;15.40;;
79369;SDS011;68835;53.096;17.932;2023-04-01T02:22:11;22.40;;;13.50;;
79369;SDS011;68835;53.096;17.932;2023-04-01T02:24:43;20.10;;;12.40;;
79369;SDS011;68835;53.096;17.932;2023-04-01T02:27:12;19.30;;;12.50;;
79369;SDS011;68835;53.096;17.932;2023-04-01T02:29:39;17.60;;;12.20;;
79369;SDS011;68835;53.096;17.932;2023-04-01T02:32:10;19.10;;;11.60;;
79369;SDS011;68835;53.096;17.932;2023-04-01T02:37:04;19.70;;;11.40;;
79369;SDS011;68835;53.096;17.932;2023-04-01T02:39:32;26.00;;;14.90;;
79369;SDS011;68835;53.096;17.932;2023-04-01T02:41:59;23.60;;;14.90;;
79369;SDS011;68835;53.096;17.932;2023-04-01T02:46:54;21.80;;;13.40;;
79369;SDS011;68835;53.096;17.932;2023-04-01T02:49:21;18.40;;;11.50;;
79369;SDS011;68835;53.096;17.932;2023-04-01T02:51:48;16.70;;;11.30;;
79369;SDS011;68835;53.096;17.932;2023-04-01T02:54:16;18.20;;;11.80;;
79369;SDS011;68835;53.096;17.932;2023-04-01T02:56:43;17.60;;;11.50;;
79369;SDS011;68835;53.096;17.932;2023-04-01T02:59:12;23.20;;;14.50;;
79369;SDS011;68835;53.096;17.932;2023-04-01T03:01:39;19.60;;;12.60;;
79369;SDS011;68835;53.096;17.932;2023-04-01T03:04:06;18.30;;;10.80;;
79369;SDS011;68835;53.096;17.932;2023-04-01T03:06:34;16.90;;;11.60;;
79369;SDS011;68835;53.096;17.932;2023-04-01T03:09:01;15.10;;;9.70;;
79369;SDS011;68835;53.096;17.932;2023-04-01T03:11:29;13.20;;;8.80;;
79369;SDS011;68835;53.096;17.932;2023-04-01T03:13:57;15.80;;;9.10;;
79369;SDS011;68835;53.096;17.932;2023-04-01T03:16:24;13.80;;;9.60;;
79369;SDS011;68835;53.096;17.932;2023-04-01T03:18:52;15.70;;;9.90;;
79369;SDS011;68835;53.096;17.932;2023-04-01T03:21:21;15.30;;;10.10;;
79369;SDS011;68835;53.096;17.932;2023-04-01T03:23:50;15.30;;;9.40;;
79369;SDS011;68835;53.096;17.932;2023-04-01T03:26:17;15.90;;;9.00;;
79369;SDS011;68835;53.096;17.932;2023-04-01T03:28:45;10.60;;;7.10;;
79369;SDS011;68835;53.096;17.932;2023-04-01T03:31:13;14.80;;;9.50;;
79369;SDS011;68835;53.096;17.932;2023-04-01T03:33:45;13.50;;;8.80;;
79369;SDS011;68835;53.096;17.932;2023-04-01T03:36:12;14.00;;;8.70;;
79369;SDS011;68835;53.096;17.932;2023-04-01T03:38:40;16.80;;;9.20;;
79369;SDS011;68835;53.096;17.932;2023-04-01T03:41:15;17.90;;;9.80;;
79369;SDS011;68835;53.096;17.932;2023-04-01T03:43:43;14.80;;;8.10;;
79369;SDS011;68835;53.096;17.932;2023-04-01T03:46:16;13.80;;;8.10;;
79369;SDS011;68835;53.096;17.932;2023-04-01T03:48:44;15.40;;;9.10;;
79369;SDS011;68835;53.096;17.932;2023-04-01T03:51:12;17.70;;;11.00;;
79369;SDS011;68835;53.096;17.932;2023-04-01T03:53:39;14.50;;;8.20;;
79369;SDS011;68835;53.096;17.932;2023-04-01T03:56:07;17.40;;;9.30;;
79369;SDS011;68835;53.096;17.932;2023-04-01T03:58:36;22.10;;;11.20;;
79369;SDS011;68835;53.096;17.932;2023-04-01T04:01:12;17.30;;;9.40;;
79369;SDS011;68835;53.096;17.932;2023-04-01T04:03:41;18.20;;;8.90;;
79369;SDS011;68835;53.096;17.932;2023-04-01T04:06:11;14.70;;;8.70;;
79369;SDS011;68835;53.096;17.932;2023-04-01T04:08:39;16.60;;;8.80;;
79369;SDS011;68835;53.096;17.932;2023-04-01T04:11:07;18.30;;;9.60;;
79369;SDS011;68835;53.096;17.932;2023-04-01T04:16:05;19.00;;;11.10;;
79369;SDS011;68835;53.096;17.932;2023-04-01T04:18:34;28.50;;;13.00;;
79369;SDS011;68835;53.096;17.932;2023-04-01T04:23:29;19.70;;;10.10;;
79369;SDS011;68835;53.096;17.932;2023-04-01T04:25:59;14.90;;;8.30;;
79369;SDS011;68835;53.096;17.932;2023-04-01T04:28:31;15.70;;;7.60;;
79369;SDS011;68835;53.096;17.932;2023-04-01T04:31:00;13.70;;;7.30;;
79369;SDS011;68835;53.096;17.932;2023-04-01T04:33:28;13.50;;;7.20;;
79369;SDS011;68835;53.096;17.932;2023-04-01T04:35:56;13.20;;;6.90;;
79369;SDS011;68835;53.096;17.932;2023-04-01T04:38:24;15.80;;;7.20;;
79369;SDS011;68835;53.096;17.932;2023-04-01T04:40:52;17.10;;;7.30;;
79369;SDS011;68835;53.096;17.932;2023-04-01T04:43:20;17.10;;;7.70;;
79369;SDS011;68835;53.096;17.932;2023-04-01T04:45:47;14.80;;;7.10;;
79369;SDS011;68835;53.096;17.932;2023-04-01T04:48:15;14.90;;;7.70;;
79369;SDS011;68835;53.096;17.932;2023-04-01T04:50:46;16.30;;;8.80;;
79369;SDS011;68835;53.096;17.932;2023-04-01T04:53:17;16.40;;;8.60;;
79369;SDS011;68835;53.096;17.932;2023-04-01T04:55:46;20.00;;;10.10;;
79369;SDS011;68835;53.096;17.932;2023-04-01T04:58:21;22.20;;;10.40;;
79369;SDS011;68835;53.096;17.932;2023-04-01T05:00:48;20.50;;;9.60;;
79369;SDS011;68835;53.096;17.932;2023-04-01T05:05:51;13.90;;;7.50;;
79369;SDS011;68835;53.096;17.932;2023-04-01T05:08:20;15.60;;;7.80;;
79369;SDS011;68835;53.096;17.932;2023-04-01T05:10:47;16.50;;;8.70;;
79369;SDS011;68835;53.096;17.932;2023-04-01T05:13:15;19.70;;;9.20;;
79369;SDS011;68835;53.096;17.932;2023-04-01T05:15:42;20.20;;;10.20;;
79369;SDS011;68835;53.096;17.932;2023-04-01T05:18:10;24.60;;;11.20;;
79369;SDS011;68835;53.096;17.932;2023-04-01T05:20:37;27.50;;;12.50;;
79369;SDS011;68835;53.096;17.932;2023-04-01T05:23:04;29.60;;;13.40;;
79369;SDS011;68835;53.096;17.932;2023-04-01T05:25:31;28.40;;;12.00;;
79369;SDS011;68835;53.096;17.932;2023-04-01T05:27:59;20.40;;;9.50;;
79369;SDS011;68835;53.096;17.932;2023-04-01T05:30:26;20.20;;;9.80;;
79369;SDS011;68835;53.096;17.932;2023-04-01T05:33:11;21.60;;;9.80;;
79369;SDS011;68835;53.096;17.932;2023-04-01T05:35:39;20.40;;;10.10;;
79369;SDS011;68835;53.096;17.932;2023-04-01T05:38:07;25.50;;;12.00;;
79369;SDS011;68835;53.096;17.932;2023-04-01T05:40:34;25.20;;;11.60;;
79369;SDS011;68835;53.096;17.932;2023-04-01T05:43:02;26.60;;;11.20;;
79369;SDS011;68835;53.096;17.932;2023-04-01T05:45:31;22.90;;;10.90;;
79369;SDS011;68835;53.096;17.932;2023-04-01T05:48:24;23.40;;;10.70;;
79369;SDS011;68835;53.096;17.932;2023-04-01T05:50:51;21.40;;;10.90;;
79369;SDS011;68835;53.096;17.932;2023-04-01T05:55:47;19.10;;;9.00;;
79369;SDS011;68835;53.096;17.932;2023-04-01T05:58:14;25.60;;;11.50;;
79369;SDS011;68835;53.096;17.932;2023-04-01T06:00:43;26.30;;;12.10;;
79369;SDS011;68835;53.096;17.932;2023-04-01T06:03:12;29.50;;;13.50;;
79369;SDS011;68835;53.096;17.932;2023-04-01T06:05:40;28.00;;;12.90;;
79369;SDS011;68835;53.096;17.932;2023-04-01T06:08:11;24.00;;;11.20;;
79369;SDS011;68835;53.096;17.932;2023-04-01T06:10:47;24.30;;;12.10;;
79369;SDS011;68835;53.096;17.932;2023-04-01T06:16:36;22.50;;;10.60;;
79369;SDS011;68835;53.096;17.932;2023-04-01T06:19:24;34.80;;;14.20;;
79369;SDS011;68835;53.096;17.932;2023-04-01T06:24:45;25.10;;;12.90;;
79369;SDS011;68835;53.096;17.932;2023-04-01T06:27:43;25.20;;;11.90;;
79369;SDS011;68835;53.096;17.932;2023-04-01T06:36:06;24.10;;;12.30;;
79369;SDS011;68835;53.096;17.932;2023-04-01T06:50:28;20.60;;;10.80;;
79369;SDS011;68835;53.096;17.932;2023-04-01T06:53:37;18.70;;;10.60;;
79369;SDS011;68835;53.096;17.932;2023-04-01T06:56:37;20.10;;;9.90;;
79369;SDS011;68835;53.096;17.932;2023-04-01T06:59:15;27.10;;;12.70;;
79369;SDS011;68835;53.096;17.932;2023-04-01T07:01:57;21.70;;;12.60;;
79369;SDS011;68835;53.096;17.932;2023-04-01T07:04:34;19.40;;;11.00;;
79369;SDS011;68835;53.096;17.932;2023-04-01T07:07:05;16.30;;;9.50;;
79369;SDS011;68835;53.096;17.932;2023-04-01T07:09:58;18.30;;;10.50;;
79369;SDS011;68835;53.096;17.932;2023-04-01T07:15:40;16.80;;;9.00;;
79369;SDS011;68835;53.096;17.932;2023-04-01T07:20:55;17.20;;;9.40;;
79369;SDS011;68835;53.096;17.932;2023-04-01T07:23:26;14.50;;;8.60;;
79369;SDS011;68835;53.096;17.932;2023-04-01T07:26:23;13.80;;;7.60;;
79369;SDS011;68835;53.096;17.932;2023-04-01T07:28:54;13.30;;;8.40;;
79369;SDS011;68835;53.096;17.932;2023-04-01T07:34:28;14.60;;;8.70;;
79369;SDS011;68835;53.096;17.932;2023-04-01T07:37:14;23.60;;;11.50;;
79369;SDS011;68835;53.096;17.932;2023-04-01T07:56:06;25.20;;;13.50;;
79369;SDS011;68835;53.096;17.932;2023-04-01T08:01:20;18.50;;;10.00;;
79369;SDS011;68835;53.096;17.932;2023-04-01T08:04:04;22.80;;;12.10;;
79369;SDS011;68835;53.096;17.932;2023-04-01T08:06:45;17.00;;;10.10;;
79369;SDS011;68835;53.096;17.932;2023-04-01T08:09:32;15.90;;;10.50;;
79369;SDS011;68835;53.096;17.932;2023-04-01T08:20:44;20.20;;;10.80;;
79369;SDS011;68835;53.096;17.932;2023-04-01T08:23:16;18.40;;;10.50;;
79369;SDS011;68835;53.096;17.932;2023-04-01T08:25:53;16.20;;;10.20;;
79369;SDS011;68835;53.096;17.932;2023-04-01T08:28:37;16.10;;;10.30;;
79369;SDS011;68835;53.096;17.932;2023-04-01T08:31:16;17.30;;;10.00;;
79369;SDS011;68835;53.096;17.932;2023-04-01T08:33:47;13.50;;;8.20;;
79369;SDS011;68835;53.096;17.932;2023-04-01T08:36:17;12.30;;;8.20;;
79369;SDS011;68835;53.096;17.932;2023-04-01T08:39:07;13.20;;;9.20;;
79369;SDS011;68835;53.096;17.932;2023-04-01T08:41:48;26.00;;;13.90;;
79369;SDS011;68835;53.096;17.932;2023-04-01T08:53:47;11.60;;;7.10;;
79369;SDS011;68835;53.096;17.932;2023-04-01T09:03:07;33.10;;;18.60;;
79369;SDS011;68835;53.096;17.932;2023-04-01T09:35:25;27.20;;;11.70;;
79369;SDS011;68835;53.096;17.932;2023-04-01T09:41:07;6.50;;;4.00;;
79369;SDS011;68835;53.096;17.932;2023-04-01T09:44:12;6.90;;;4.40;;
79369;SDS011;68835;53.096;17.932;2023-04-01T09:55:45;7.20;;;4.90;;
79369;SDS011;68835;53.096;17.932;2023-04-01T10:01:19;7.50;;;4.40;;
79369;SDS011;68835;53.096;17.932;2023-04-01T10:15:51;5.90;;;3.40;;
79369;SDS011;68835;53.096;17.932;2023-04-01T10:18:40;3.50;;;2.80;;
79369;SDS011;68835;53.096;17.932;2023-04-01T10:21:49;4.80;;;3.50;;
79369;SDS011;68835;53.096;17.932;2023-04-01T10:51:59;8.10;;;3.30;;
79369;SDS011;68835;53.096;17.932;2023-04-01T11:27:43;6.60;;;4.10;;
79369;SDS011;68835;53.096;17.932;2023-04-01T11:33:26;7.00;;;3.80;;
79369;SDS011;68835;53.096;17.932;2023-04-01T11:44:36;8.50;;;4.60;;
79369;SDS011;68835;53.096;17.932;2023-04-01T11:47:22;6.30;;;4.10;;
79369;SDS011;68835;53.096;17.932;2023-04-01T11:50:14;6.50;;;4.70;;
79369;SDS011;68835;53.096;17.932;2023-04-01T11:52:56;6.30;;;4.30;;
79369;SDS011;68835;53.096;17.932;2023-04-01T11:58:32;7.20;;;4.70;;
79369;SDS011;68835;53.096;17.932;2023-04-01T12:07:02;7.40;;;5.10;;
79369;SDS011;68835;53.096;17.932;2023-04-01T12:15:58;6.80;;;4.10;;
79369;SDS011;68835;53.096;17.932;2023-04-01T12:35:13;5.00;;;3.60;;
79369;SDS011;68835;53.096;17.932;2023-04-01T12:48:32;5.60;;;3.80;;
79369;SDS011;68835;53.096;17.932;2023-04-01T13:17:42;4.70;;;3.20;;
79369;SDS011;68835;53.096;17.932;2023-04-01T13:43:25;5.20;;;3.30;;
79369;SDS011;68835;53.096;17.932;2023-04-01T13:54:12;4.90;;;4.10;;
79369;SDS011;68835;53.096;17.932;2023-04-01T14:02:57;6.30;;;3.40;;
79369;SDS011;68835;53.096;17.932;2023-04-01T14:11:17;8.40;;;4.80;;
79369;SDS011;68835;53.096;17.932;2023-04-01T14:36:53;4.70;;;3.20;;
79369;SDS011;68835;53.096;17.932;2023-04-01T14:51:13;7.00;;;4.50;;
79369;SDS011;68835;53.096;17.932;2023-04-01T14:54:46;6.90;;;4.70;;
79369;SDS011;68835;53.096;17.932;2023-04-01T14:56:50;9.50;;;5.80;;
79369;SDS011;68835;53.096;17.932;2023-04-01T14:59:30;4.90;;;3.60;;
79369;SDS011;68835;53.096;17.932;2023-04-01T15:18:40;7.00;;;4.40;;
79369;SDS011;68835;53.096;17.932;2023-04-01T15:24:15;4.00;;;3.30;;
79369;SDS011;68835;53.096;17.932;2023-04-01T15:29:40;4.90;;;3.50;;
79369;SDS011;68835;53.096;17.932;2023-04-01T15:32:25;4.50;;;2.90;;
79369;SDS011;68835;53.096;17.932;2023-04-01T15:35:32;5.40;;;3.60;;
79369;SDS011;68835;53.096;17.932;2023-04-01T15:54:39;7.70;;;4.50;;
79369;SDS011;68835;53.096;17.932;2023-04-01T15:57:25;6.70;;;4.30;;
79369;SDS011;68835;53.096;17.932;2023-04-01T16:05:36;8.80;;;5.40;;
79369;SDS011;68835;53.096;17.932;2023-04-01T16:17:28;8.40;;;4.40;;
79369;SDS011;68835;53.096;17.932;2023-04-01T16:20:34;10.50;;;5.00;;
79369;SDS011;68835;53.096;17.932;2023-04-01T16:26:36;7.40;;;3.80;;
79369;SDS011;68835;53.096;17.932;2023-04-01T16:37:21;5.70;;;3.70;;
79369;SDS011;68835;53.096;17.932;2023-04-01T16:42:52;6.50;;;4.60;;
79369;SDS011;68835;53.096;17.932;2023-04-01T16:45:35;9.90;;;4.80;;
79369;SDS011;68835;53.096;17.932;2023-04-01T16:48:11;7.80;;;3.90;;
79369;SDS011;68835;53.096;17.932;2023-04-01T16:53:45;4.90;;;3.40;;
79369;SDS011;68835;53.096;17.932;2023-04-01T16:57:36;4.40;;;3.30;;
79369;SDS011;68835;53.096;17.932;2023-04-01T16:59:37;5.30;;;3.30;;
79369;SDS011;68835;53.096;17.932;2023-04-01T17:02:16;5.70;;;3.20;;
79369;SDS011;68835;53.096;17.932;2023-04-01T17:04:57;25.90;;;13.00;;
79369;SDS011;68835;53.096;17.932;2023-04-01T17:25:01;4.80;;;2.90;;
79369;SDS011;68835;53.096;17.932;2023-04-01T17:27:55;5.50;;;2.80;;
79369;SDS011;68835;53.096;17.932;2023-04-01T17:30:38;4.50;;;3.10;;
79369;SDS011;68835;53.096;17.932;2023-04-01T17:34:17;7.90;;;4.50;;
79369;SDS011;68835;53.096;17.932;2023-04-01T17:36:35;10.00;;;4.50;;
79369;SDS011;68835;53.096;17.932;2023-04-01T17:39:38;4.80;;;2.80;;
79369;SDS011;68835;53.096;17.932;2023-04-01T17:42:22;8.30;;;4.00;;
79369;SDS011;68835;53.096;17.932;2023-04-01T17:45:21;9.90;;;4.30;;
79369;SDS011;68835;53.096;17.932;2023-04-01T17:53:59;4.10;;;2.40;;
79369;SDS011;68835;53.096;17.932;2023-04-01T17:57:00;8.30;;;4.20;;
79369;SDS011;68835;53.096;17.932;2023-04-01T18:02:46;5.20;;;3.10;;
79369;SDS011;68835;53.096;17.932;2023-04-01T18:17:21;4.90;;;3.00;;
79369;SDS011;68835;53.096;17.932;2023-04-01T18:23:23;5.10;;;3.60;;
79369;SDS011;68835;53.096;17.932;2023-04-01T18:26:04;7.60;;;3.90;;
79369;SDS011;68835;53.096;17.932;2023-04-01T18:31:19;5.60;;;4.20;;
79369;SDS011;68835;53.096;17.932;2023-04-01T18:36:49;5.70;;;3.30;;
79369;SDS011;68835;53.096;17.932;2023-04-01T18:39:35;6.40;;;3.70;;
79369;SDS011;68835;53.096;17.932;2023-04-01T18:45:21;6.00;;;4.00;;
79369;SDS011;68835;53.096;17.932;2023-04-01T18:56:13;9.60;;;6.10;;
79369;SDS011;68835;53.096;17.932;2023-04-01T19:04:20;9.40;;;5.00;;
79369;SDS011;68835;53.096;17.932;2023-04-01T19:06:58;7.50;;;5.00;;
79369;SDS011;68835;53.096;17.932;2023-04-01T19:09:43;22.50;;;14.00;;
79369;SDS011;68835;53.096;17.932;2023-04-01T19:27:03;20.40;;;15.10;;
79369;SDS011;68835;53.096;17.932;2023-04-01T19:29:56;13.00;;;6.30;;
79369;SDS011;68835;53.096;17.932;2023-04-01T19:32:49;8.50;;;4.90;;
79369;SDS011;68835;53.096;17.932;2023-04-01T19:35:42;10.10;;;5.70;;
79369;SDS011;68835;53.096;17.932;2023-04-01T19:38:25;8.60;;;4.90;;
79369;SDS011;68835;53.096;17.932;2023-04-01T19:46:45;25.70;;;15.90;;
79369;SDS011;68835;53.096;17.932;2023-04-01T19:49:36;27.40;;;12.30;;
79369;SDS011;68835;53.096;17.932;2023-04-01T19:52:34;10.50;;;6.10;;
79369;SDS011;68835;53.096;17.932;2023-04-01T19:58:06;10.40;;;7.00;;
79369;SDS011;68835;53.096;17.932;2023-04-01T20:00:53;10.00;;;4.60;;
79369;SDS011;68835;53.096;17.932;2023-04-01T20:11:46;26.90;;;17.30;;
79369;SDS011;68835;53.096;17.932;2023-04-01T20:17:20;12.00;;;7.40;;
79369;SDS011;68835;53.096;17.932;2023-04-01T20:27:58;9.60;;;5.10;;
79369;SDS011;68835;53.096;17.932;2023-04-01T20:36:34;30.10;;;15.50;;
79369;SDS011;68835;53.096;17.932;2023-04-01T20:56:29;11.00;;;6.10;;
79369;SDS011;68835;53.096;17.932;2023-04-01T20:59:16;12.30;;;6.60;;
79369;SDS011;68835;53.096;17.932;2023-04-01T21:05:42;22.60;;;11.00;;
79369;SDS011;68835;53.096;17.932;2023-04-01T21:08:40;21.60;;;10.50;;
79369;SDS011;68835;53.096;17.932;2023-04-01T21:17:08;10.20;;;6.20;;
79369;SDS011;68835;53.096;17.932;2023-04-01T21:19:52;17.30;;;10.20;;
79369;SDS011;68835;53.096;17.932;2023-04-01T21:28:20;8.10;;;4.40;;
79369;SDS011;68835;53.096;17.932;2023-04-01T21:33:49;16.30;;;8.70;;
79369;SDS011;68835;53.096;17.932;2023-04-01T21:51:25;11.70;;;5.60;;
79369;SDS011;68835;53.096;17.932;2023-04-01T21:56:55;9.00;;;5.80;;
79369;SDS011;68835;53.096;17.932;2023-04-01T22:05:17;9.50;;;5.90;;
79369;SDS011;68835;53.096;17.932;2023-04-01T22:25:28;18.10;;;9.40;;
79369;SDS011;68835;53.096;17.932;2023-04-01T22:28:03;18.30;;;9.60;;
79369;SDS011;68835;53.096;17.932;2023-04-01T22:30:37;13.30;;;8.00;;
79369;SDS011;68835;53.096;17.932;2023-04-01T22:33:13;10.00;;;5.80;;
79369;SDS011;68835;53.096;17.932;2023-04-01T22:35:51;9.80;;;4.60;;
79369;SDS011;68835;53.096;17.932;2023-04-01T22:38:35;7.20;;;4.70;;
79369;SDS011;68835;53.096;17.932;2023-04-01T22:43:54;7.80;;;5.00;;
79369;SDS011;68835;53.096;17.932;2023-04-01T22:46:42;6.50;;;3.90;;
79369;SDS011;68835;53.096;17.932;2023-04-01T22:49:37;14.00;;;8.10;;
79369;SDS011;68835;53.096;17.932;2023-04-01T22:54:45;15.80;;;7.00;;
79369;SDS011;68835;53.096;17.932;2023-04-01T22:57:32;7.30;;;4.50;;
79369;SDS011;68835;53.096;17.932;2023-04-01T23:00:05;6.70;;;4.10;;
79369;SDS011;68835;53.096;17.932;2023-04-01T23:02:40;8.20;;;4.90;;
79369;SDS011;68835;53.096;17.932;2023-04-01T23:05:27;10.00;;;4.30;;
79369;SDS011;68835;53.096;17.932;2023-04-01T23:10:42;10.10;;;5.10;;
79369;SDS011;68835;53.096;17.932;2023-04-01T23:13:18;13.20;;;7.30;;
79369;SDS011;68835;53.096;17.932;2023-04-01T23:23:45;8.60;;;4.00;;
79369;SDS011;68835;53.096;17.932;2023-04-01T23:26:21;5.60;;;3.90;;
79369;SDS011;68835;53.096;17.932;2023-04-01T23:28:53;5.50;;;4.10;;
79369;SDS011;68835;53.096;17.932;2023-04-01T23:36:41;6.80;;;3.60;;
79369;SDS011;68835;53.096;17.932;2023-04-01T23:42:05;11.80;;;7.30;;
79369;SDS011;68835;53.096;17.932;2023-04-01T23:44:33;7.10;;;4.80;;
79369;SDS011;68835;53.096;17.932;2023-04-01T23:47:02;5.50;;;3.40;;
79369;SDS011;68835;53.096;17.932;2023-04-01T23:52:26;5.10;;;3.10;;
79369;SDS011;68835;53.096;17.932;2023-04-01T23:57:39;5.20;;;3.50;;
